Time;durP1;ratioP1;P1;durP2;ratioP2;P2;SDS_P1;SDS_P2;PMS_P1;PMS_P2;Temp;Humidity;BMP_temperature;BMP_pressure;BME280_temperature;BME280_humidity;BME280_pressure;Samples;Min_cycle;Max_cycle;Signal;HPM_P1;HPM_P2
2023/02/05 00:02:06;;;;;;;9.55;4.05;;;;;;;6.70;24.84;93535.06;6185151;23;20013;-78
2023/02/05 00:04:33;;;;;;;7.50;3.20;;;;;;;6.55;24.83;93539.00;6159818;23;20067;-77
2023/02/05 00:06:58;;;;;;;7.68;3.22;;;;;;;6.66;24.22;93529.53;6158744;23;20024;-77
2023/02/05 00:09:24;;;;;;;12.23;5.47;;;;;;;6.47;26.13;93537.56;6185508;23;20425;-77
2023/02/05 00:11:50;;;;;;;10.30;4.80;;;;;;;6.32;27.36;93537.28;6158787;23;20384;-77
2023/02/05 00:14:15;;;;;;;11.10;4.75;;;;;;;6.14;27.87;93538.28;6184857;23;20013;-78
2023/02/05 00:16:41;;;;;;;13.43;6.40;;;;;;;5.98;29.06;93537.22;6185247;23;20039;-77
2023/02/05 00:19:06;;;;;;;13.25;5.65;;;;;;;5.87;30.25;93538.00;6185320;23;20023;-78
2023/02/05 00:21:32;;;;;;;13.73;6.20;;;;;;;5.72;31.51;93542.91;6184865;23;20012;-77
2023/02/05 00:23:58;;;;;;;12.57;5.93;;;;;;;5.58;31.47;93543.19;6185020;23;20005;-77
2023/02/05 00:26:23;;;;;;;11.77;4.95;;;;;;;5.42;31.01;93547.25;6185484;23;20013;-78
2023/02/05 00:28:49;;;;;;;15.27;7.25;;;;;;;5.50;34.70;93556.50;6185092;23;20020;-77
2023/02/05 00:31:18;;;;;;;16.10;7.85;;;;;;;5.32;36.34;93557.44;6184870;23;20024;-77
2023/02/05 00:33:45;;;;;;;20.77;9.30;;;;;;;5.16;38.48;93553.72;6184316;23;20016;-77
2023/02/05 00:36:12;;;;;;;28.55;13.05;;;;;;;5.13;46.09;93563.75;6158602;23;20061;-77
2023/02/05 00:38:38;;;;;;;28.77;13.60;;;;;;;5.09;49.51;93573.00;6184683;23;20032;-77
2023/02/05 00:41:04;;;;;;;29.88;13.82;;;;;;;5.01;52.19;93577.50;6184823;23;20020;-78
2023/02/05 00:43:30;;;;;;;30.20;14.15;;;;;;;4.91;55.23;93573.88;6133739;23;20013;-77
2023/02/05 00:45:56;;;;;;;23.45;11.23;;;;;;;4.85;56.83;93585.19;6132770;23;19997;-77
2023/02/05 00:48:22;;;;;;;24.92;12.05;;;;;;;4.82;56.83;93577.81;6184081;23;20009;-77
2023/02/05 00:50:49;;;;;;;35.45;15.80;;;;;;;4.75;60.81;93576.16;6157391;23;20056;-77
2023/02/05 00:53:14;;;;;;;31.55;14.35;;;;;;;4.66;62.87;93580.06;6184056;23;20001;-77
2023/02/05 00:55:40;;;;;;;32.15;14.88;;;;;;;4.51;65.33;93577.09;6183139;23;20020;-77
2023/02/05 00:58:06;;;;;;;31.92;15.27;;;;;;;4.43;65.69;93580.78;6157285;23;20353;-77
2023/02/05 01:00:32;;;;;;;34.85;15.27;;;;;;;4.33;67.39;93588.31;6157516;23;20017;-77
2023/02/05 01:03:00;;;;;;;32.35;14.15;;;;;;;4.26;68.59;93587.63;6157764;23;20017;-77
2023/02/05 01:05:26;;;;;;;38.00;16.40;;;;;;;4.19;69.98;93603.25;6183926;23;20020;-77
2023/02/05 01:07:51;;;;;;;40.38;15.40;;;;;;;4.20;71.86;93602.22;6157734;23;20017;-77
2023/02/05 01:10:17;;;;;;;35.45;15.55;;;;;;;4.15;72.11;93609.88;6157982;23;20083;-77
2023/02/05 01:12:43;;;;;;;31.23;13.23;;;;;;;4.16;74.81;93612.25;6157489;23;20036;-77
2023/02/05 01:15:12;;;;;;;31.55;14.32;;;;;;;4.02;75.76;93620.41;6182906;23;20465;-77
2023/02/05 01:17:37;;;;;;;37.10;15.13;;;;;;;3.92;76.37;93605.38;6157227;23;20012;-77
2023/02/05 01:20:04;;;;;;;36.78;15.52;;;;;;;3.92;77.19;93606.16;6156941;23;20009;-77
2023/02/05 01:22:31;;;;;;;29.15;14.32;;;;;;;3.88;77.70;93617.19;6184073;23;20039;-77
2023/02/05 01:24:56;;;;;;;35.88;14.85;;;;;;;3.74;79.47;93624.31;6156668;23;20349;-77
2023/02/05 01:27:23;;;;;;;32.85;15.13;;;;;;;3.78;80.41;93630.63;6157107;23;20075;-77
2023/02/05 01:29:49;;;;;;;29.95;13.52;;;;;;;3.67;79.27;93639.09;6183213;23;20063;-77
2023/02/05 01:32:16;;;;;;;29.83;13.38;;;;;;;3.65;79.47;93648.91;6182697;23;20011;-77
2023/02/05 01:34:41;;;;;;;29.48;12.13;;;;;;;3.73;79.46;93649.41;6182321;23;20420;-77
2023/02/05 01:37:07;;;;;;;34.72;14.35;;;;;;;3.59;80.36;93653.13;6157013;23;20043;-77
2023/02/05 01:39:35;;;;;;;34.33;14.35;;;;;;;3.54;80.64;93651.19;6157360;23;20063;-77
2023/02/05 01:42:00;;;;;;;31.02;12.98;;;;;;;3.44;80.55;93650.88;6133253;23;20013;-77
2023/02/05 01:44:29;;;;;;;31.83;13.55;;;;;;;3.50;80.34;93657.00;6182996;23;20096;-77
2023/02/05 01:46:55;;;;;;;31.05;13.57;;;;;;;3.44;81.45;93650.09;6156311;23;20079;-76
2023/02/05 01:49:35;;;;;;;27.17;12.23;;;;;;;3.46;82.21;93648.88;6157415;23;20067;-77
2023/02/05 01:52:07;;;;;;;28.77;12.82;;;;;;;3.35;81.42;93646.97;6183631;23;20074;-77
2023/02/05 01:54:36;;;;;;;24.77;11.45;;;;;;;3.39;83.75;93648.13;6157483;23;20428;-77
2023/02/05 01:57:10;;;;;;;25.65;10.93;;;;;;;3.46;83.06;93643.69;6156632;23;20265;-77
2023/02/05 01:59:40;;;;;;;30.42;13.10;;;;;;;3.46;82.81;93641.09;6156864;23;20445;-77
2023/02/05 02:02:06;;;;;;;25.92;10.65;;;;;;;3.51;82.16;93643.03;6183153;23;20043;-77
2023/02/05 02:04:40;;;;;;;27.85;11.93;;;;;;;3.27;82.80;93640.28;6157029;23;20013;-77
2023/02/05 02:07:09;;;;;;;27.30;11.93;;;;;;;3.17;83.94;93626.25;6182730;23;20040;-77
2023/02/05 02:09:37;;;;;;;26.40;11.35;;;;;;;3.15;84.01;93636.00;6183775;23;20329;-77
2023/02/05 02:12:03;;;;;;;28.90;11.48;;;;;;;3.13;85.05;93631.84;6156786;23;20028;-77
2023/02/05 02:14:31;;;;;;;29.40;12.20;;;;;;;3.12;84.68;93634.63;6156345;23;20361;-77
2023/02/05 02:16:59;;;;;;;30.70;11.48;;;;;;;3.06;84.91;93628.53;6183456;23;20433;-77
2023/02/05 02:19:42;;;;;;;22.38;9.63;;;;;;;3.28;84.47;93628.13;6182470;23;20009;-77
2023/02/05 02:22:10;;;;;;;30.08;11.55;;;;;;;3.09;84.37;93633.28;6183159;23;20548;-77
2023/02/05 02:24:58;;;;;;;26.27;10.65;;;;;;;3.11;84.91;93626.09;6156798;23;20016;-77
2023/02/05 02:27:33;;;;;;;28.55;10.93;;;;;;;3.08;84.64;93625.72;6155665;23;20063;-77
2023/02/05 02:30:06;;;;;;;30.85;11.15;;;;;;;2.96;84.19;93622.25;6154842;23;20020;-77
2023/02/05 02:32:51;;;;;;;25.15;10.48;;;;;;;2.80;83.79;93626.94;6132972;23;20017;-77
2023/02/05 02:35:26;;;;;;;28.98;10.63;;;;;;;2.73;85.45;93621.00;6131809;23;20017;-77
2023/02/05 02:38:14;;;;;;;26.80;10.82;;;;;;;2.87;86.22;93619.13;6155885;23;20497;-77
2023/02/05 02:40:49;;;;;;;30.42;11.40;;;;;;;2.85;85.09;93613.38;6182941;23;20008;-77
2023/02/05 02:43:20;;;;;;;26.25;10.23;;;;;;;2.74;86.48;93621.81;6156012;23;20071;-77
2023/02/05 02:45:54;;;;;;;24.83;11.40;;;;;;;2.64;86.43;93617.09;6182604;23;20013;-77
2023/02/05 02:48:24;;;;;;;24.27;11.07;;;;;;;2.65;84.92;93613.50;6155905;23;20020;-77
2023/02/05 02:50:55;;;;;;;32.60;11.70;;;;;;;2.45;84.36;93611.03;6156627;23;20020;-77
2023/02/05 02:53:32;;;;;;;26.83;10.85;;;;;;;2.36;83.95;93609.72;6156520;23;20012;-77
2023/02/05 02:56:00;;;;;;;27.83;12.00;;;;;;;2.24;85.69;93602.63;6156498;23;20017;-77
2023/02/05 02:58:32;;;;;;;26.30;11.43;;;;;;;2.20;85.55;93604.03;6131611;23;20348;-77
2023/02/05 03:01:00;;;;;;;29.25;11.00;;;;;;;2.14;84.87;93610.03;6156110;23;20017;-77
2023/02/05 03:03:31;;;;;;;29.25;11.25;;;;;;;1.94;87.06;93610.13;6157246;23;20332;-77
2023/02/05 03:05:59;;;;;;;25.60;10.23;;;;;;;1.96;87.99;93610.72;6132573;23;20013;-77
2023/02/05 03:08:57;;;;;;;29.92;10.93;;;;;;;1.92;87.47;93611.34;6156112;23;20060;-77
2023/02/05 03:11:25;;;;;;;25.83;10.60;;;;;;;1.77;87.72;93604.63;6156036;23;20016;-77
2023/02/05 03:13:53;;;;;;;27.33;10.43;;;;;;;1.70;88.21;93603.84;6156220;23;20112;-77
2023/02/05 03:16:24;;;;;;;24.67;10.27;;;;;;;1.82;92.28;93594.50;6156632;23;20005;-77
2023/02/05 03:18:51;;;;;;;24.63;10.40;;;;;;;1.80;90.44;93599.06;6131522;23;20021;-77
2023/02/05 03:21:28;;;;;;;28.13;11.38;;;;;;;1.71;89.91;93595.09;6156301;23;20013;-77
2023/02/05 03:23:53;;;;;;;23.48;10.48;;;;;;;1.64;89.33;93595.16;6156391;23;20019;-77
2023/02/05 03:26:33;;;;;;;25.15;10.65;;;;;;;1.62;89.65;93596.31;6182688;23;20469;-77
2023/02/05 03:29:12;;;;;;;23.10;10.77;;;;;;;1.49;90.77;93594.59;6154907;23;20005;-77
2023/02/05 03:31:44;;;;;;;23.75;10.32;;;;;;;1.47;89.57;93600.97;6155751;23;20090;-77
2023/02/05 03:34:18;;;;;;;23.65;10.13;;;;;;;1.49;91.22;93598.94;6156198;23;20044;-77
2023/02/05 03:37:08;;;;;;;27.67;11.50;;;;;;;1.44;90.62;93613.25;6154839;23;20453;-77
2023/02/05 03:40:08;;;;;;;23.88;10.45;;;;;;;1.37;90.60;93602.13;6154793;23;20013;-77
2023/02/05 03:43:09;;;;;;;23.35;9.80;;;;;;;1.32;91.40;93607.13;6182229;23;20013;-77
2023/02/05 03:45:44;;;;;;;28.13;10.68;;;;;;;1.25;90.94;93612.28;6111797;23;20016;-77
2023/02/05 03:48:21;;;;;;;26.90;10.00;;;;;;;1.21;90.44;93605.16;6156156;23;20438;-77
2023/02/05 03:51:07;;;;;;;30.88;11.05;;;;;;;1.13;91.21;93601.00;6155784;23;20445;-77
2023/02/05 03:53:45;;;;;;;27.98;10.57;;;;;;;1.08;90.30;93605.16;6155824;23;20075;-77
2023/02/05 03:56:19;;;;;;;24.75;10.15;;;;;;;1.01;90.88;93600.84;6182490;23;20092;-77
2023/02/05 03:58:50;;;;;;;26.98;10.07;;;;;;;0.94;92.90;93604.41;6182129;23;20084;-77
2023/02/05 04:01:18;;;;;;;23.63;10.05;;;;;;;0.98;92.13;93606.38;6155460;23;20393;-77
2023/02/05 04:03:45;;;;;;;26.75;10.50;;;;;;;0.92;91.96;93607.16;6131796;23;20004;-77
2023/02/05 04:06:11;;;;;;;22.67;10.10;;;;;;;0.92;91.47;93611.53;6132113;23;20025;-77
2023/02/05 04:08:37;;;;;;;21.15;9.15;;;;;;;0.85;91.84;93608.97;6157057;23;20020;-77
2023/02/05 04:11:03;;;;;;;19.33;9.15;;;;;;;0.84;91.22;93604.81;6156774;23;20017;-77
2023/02/05 04:13:30;;;;;;;23.98;9.35;;;;;;;0.82;89.97;93604.22;6157247;23;20017;-77
2023/02/05 04:15:56;;;;;;;19.85;8.82;;;;;;;0.80;89.89;93608.75;6157552;23;20092;-77
2023/02/05 04:18:22;;;;;;;20.77;7.90;;;;;;;0.78;89.36;93610.75;6157261;23;20036;-77
2023/02/05 04:20:48;;;;;;;16.02;7.30;;;;;;;0.74;88.58;93610.34;6155915;23;20059;-77
2023/02/05 04:23:18;;;;;;;18.77;6.88;;;;;;;0.69;87.77;93606.78;6157057;23;20035;-77
2023/02/05 04:25:44;;;;;;;19.95;6.82;;;;;;;0.65;87.92;93615.88;6132955;23;20017;-77
2023/02/05 04:28:13;;;;;;;20.60;6.63;;;;;;;0.61;87.45;93612.94;6157203;23;20425;-77
2023/02/05 04:30:39;;;;;;;14.65;6.07;;;;;;;0.55;86.52;93606.75;6182806;23;20121;-77
2023/02/05 04:33:07;;;;;;;16.42;6.00;;;;;;;0.53;86.54;93616.47;6158069;23;20028;-77
2023/02/05 04:35:33;;;;;;;11.85;5.18;;;;;;;0.52;85.79;93612.31;6157117;23;20429;-77
2023/02/05 04:37:59;;;;;;;14.20;5.47;;;;;;;0.53;85.22;93618.25;6156971;23;20044;-77
2023/02/05 04:40:25;;;;;;;11.82;4.65;;;;;;;0.50;84.95;93610.94;6157013;23;20467;-77
2023/02/05 04:42:50;;;;;;;11.98;4.82;;;;;;;0.55;84.38;93605.97;6131296;23;20453;-77
2023/02/05 04:45:16;;;;;;;13.98;4.72;;;;;;;0.55;83.86;93609.34;6156251;23;20024;-77
2023/02/05 04:47:42;;;;;;;17.40;4.93;;;;;;;0.52;83.79;93608.94;6156780;23;20382;-77
2023/02/05 04:50:07;;;;;;;12.80;4.22;;;;;;;0.44;83.63;93609.94;6157198;23;20093;-77
2023/02/05 04:52:33;;;;;;;11.35;4.25;;;;;;;0.44;83.59;93612.50;6156094;23;20060;-77
2023/02/05 04:54:59;;;;;;;10.20;4.53;;;;;;;0.39;83.78;93605.38;6184132;23;20036;-77
2023/02/05 04:57:24;;;;;;;8.32;3.50;;;;;;;0.37;83.46;93603.97;6183039;23;20049;-77
2023/02/05 04:59:50;;;;;;;13.45;4.22;;;;;;;0.41;82.82;93610.31;6156813;23;20344;-77
2023/02/05 05:02:16;;;;;;;10.70;3.80;;;;;;;0.37;83.40;93614.28;6182639;23;20068;-77
2023/02/05 05:04:41;;;;;;;15.43;4.18;;;;;;;0.33;83.12;93607.94;6157012;23;20008;-77
2023/02/05 05:07:08;;;;;;;11.80;4.07;;;;;;;0.25;83.46;93605.53;6183224;23;20039;-77
2023/02/05 05:09:36;;;;;;;10.30;3.50;;;;;;;0.24;83.33;93593.66;6183637;23;20449;-77
2023/02/05 05:12:01;;;;;;;10.10;3.60;;;;;;;0.21;83.31;93597.41;6183021;23;20011;-77
2023/02/05 05:14:27;;;;;;;12.35;4.35;;;;;;;0.22;83.94;93603.34;6155983;23;20017;-77
2023/02/05 05:16:53;;;;;;;10.77;3.90;;;;;;;0.22;83.72;93596.41;6182369;23;20017;-77
2023/02/05 05:19:18;;;;;;;11.57;3.80;;;;;;;0.18;83.75;93584.91;6156945;23;20016;-77
2023/02/05 05:21:44;;;;;;;10.52;3.67;;;;;;;0.17;83.20;93598.78;6132482;23;20024;-77
2023/02/05 05:24:09;;;;;;;9.90;3.63;;;;;;;0.15;84.25;93591.25;6182409;23;20075;-77
2023/02/05 05:26:36;;;;;;;9.27;3.38;;;;;;;0.14;83.52;93589.66;6183098;23;20482;-77
2023/02/05 05:29:02;;;;;;;14.23;4.18;;;;;;;0.11;83.18;93600.38;6181479;23;20396;-77
2023/02/05 05:31:28;;;;;;;8.07;2.85;;;;;;;0.08;83.81;93593.00;6157188;23;20013;-77
2023/02/05 05:33:53;;;;;;;11.57;3.25;;;;;;;0.09;83.53;93594.63;6157072;23;20001;-77
2023/02/05 05:36:19;;;;;;;8.57;2.92;;;;;;;0.07;83.67;93593.19;6182380;23;20354;-77
2023/02/05 05:38:45;;;;;;;19.00;3.55;;;;;;;0.07;84.08;93594.00;6183182;23;20016;-77
2023/02/05 05:44:04;;;;;;;6.43;2.80;;;;;;;0.02;83.69;93586.06;6156464;23;20040;-77
2023/02/05 05:46:30;;;;;;;8.25;2.95;;;;;;;-0.02;83.62;93590.03;6183024;23;20362;-76
2023/02/05 05:48:58;;;;;;;15.07;3.42;;;;;;;-0.07;84.53;93582.06;6183163;23;20430;-77
2023/02/05 05:51:26;;;;;;;10.68;3.28;;;;;;;-0.11;84.76;93580.88;6132417;23;20024;-77
2023/02/05 05:53:51;;;;;;;6.35;2.90;;;;;;;-0.18;84.87;93580.88;6183016;23;20001;-77
2023/02/05 05:56:18;;;;;;;10.55;2.63;;;;;;;-0.20;85.33;93593.16;6183170;23;20314;-77
2023/02/05 05:58:44;;;;;;;12.60;2.60;;;;;;;-0.22;85.33;93595.13;6183047;23;20013;-77
2023/02/05 06:01:12;;;;;;;13.25;2.75;;;;;;;-0.27;85.50;93584.59;6155581;23;20456;-77
2023/02/05 06:03:37;;;;;;;8.75;2.65;;;;;;;-0.30;84.88;93588.34;6183096;23;20017;-77
2023/02/05 06:06:05;;;;;;;7.53;2.42;;;;;;;-0.24;85.85;93600.44;6182141;23;20352;-77
2023/02/05 06:08:31;;;;;;;7.63;2.53;;;;;;;-0.27;85.10;93593.13;6156717;23;20005;-77
2023/02/05 06:10:57;;;;;;;10.65;2.75;;;;;;;-0.27;85.25;93603.41;6182348;23;20007;-77
2023/02/05 06:13:26;;;;;;;6.38;2.08;;;;;;;-0.26;85.22;93610.13;6157641;23;20020;-77
2023/02/05 06:15:53;;;;;;;6.32;2.53;;;;;;;-0.28;84.49;93604.38;6182683;23;20020;-77
2023/02/05 06:18:19;;;;;;;14.52;2.58;;;;;;;-0.27;85.46;93597.44;6182798;23;20075;-77
2023/02/05 06:20:44;;;;;;;9.38;2.70;;;;;;;-0.28;85.38;93595.88;6182881;23;20051;-77
2023/02/05 06:23:10;;;;;;;12.65;2.40;;;;;;;-0.29;85.80;93600.22;6183072;23;20072;-77
2023/02/05 06:25:36;;;;;;;13.63;2.85;;;;;;;-0.30;85.87;93603.78;6155991;23;20005;-77
2023/02/05 06:28:02;;;;;;;7.25;2.08;;;;;;;-0.30;85.72;93601.19;6132093;23;20305;-77
2023/02/05 06:30:27;;;;;;;10.02;2.70;;;;;;;-0.32;85.02;93600.59;6180866;23;20016;-76
2023/02/05 06:32:53;;;;;;;7.97;2.80;;;;;;;-0.32;85.90;93600.59;6182586;23;20008;-77
2023/02/05 06:35:19;;;;;;;7.82;2.65;;;;;;;-0.30;84.69;93613.28;6182841;23;20020;-77
2023/02/05 06:37:45;;;;;;;6.18;2.50;;;;;;;-0.31;84.96;93611.72;6182609;23;20040;-77
2023/02/05 06:40:11;;;;;;;14.55;2.70;;;;;;;-0.36;84.85;93609.72;6182553;23;20032;-77
2023/02/05 06:42:37;;;;;;;8.55;2.40;;;;;;;-0.38;85.27;93619.41;6182688;23;20067;-77
2023/02/05 06:45:03;;;;;;;14.68;3.15;;;;;;;-0.46;86.77;93614.41;6182667;23;20001;-77
2023/02/05 06:47:29;;;;;;;6.63;2.85;;;;;;;-0.50;86.69;93623.47;6155238;23;20071;-76
2023/02/05 06:49:55;;;;;;;13.98;2.75;;;;;;;-0.52;86.64;93623.69;6182386;23;20445;-77
2023/02/05 06:52:20;;;;;;;10.40;3.03;;;;;;;-0.50;87.01;93615.75;6182542;23;20001;-76
2023/02/05 06:54:46;;;;;;;9.75;2.67;;;;;;;-0.48;85.71;93619.72;6182724;23;20262;-77
2023/02/05 06:57:12;;;;;;;7.05;2.88;;;;;;;-0.33;86.78;93623.97;6154884;23;20021;-77
2023/02/05 06:59:38;;;;;;;13.85;3.40;;;;;;;0.18;85.84;93611.47;6182277;23;20028;-77
2023/02/05 07:02:04;;;;;;;17.02;3.60;;;;;;;0.80;83.54;93619.06;6155529;23;20017;-77
2023/02/05 07:04:30;;;;;;;13.20;3.63;;;;;;;1.06;81.02;93615.72;6183444;23;20037;-79
2023/02/05 07:06:56;;;;;;;17.77;3.05;;;;;;;1.41;79.35;93612.88;6133374;23;20504;-80
2023/02/05 07:09:22;;;;;;;10.05;3.42;;;;;;;2.01;76.59;93620.44;6154496;23;20048;-76
2023/02/05 07:11:48;;;;;;;12.07;3.72;;;;;;;2.56;74.38;93623.31;6155516;23;20397;-76
2023/02/05 07:14:14;;;;;;;9.40;3.53;;;;;;;3.29;71.56;93624.56;6130942;23;20033;-76
2023/02/05 07:16:40;;;;;;;9.52;3.13;;;;;;;3.62;69.24;93626.03;6152401;23;20044;-77
2023/02/05 07:19:05;;;;;;;13.60;3.67;;;;;;;3.80;68.01;93623.44;6155993;23;20013;-77
2023/02/05 07:21:31;;;;;;;9.18;3.67;;;;;;;4.64;64.43;93621.00;6181376;23;20231;-77
2023/02/05 07:23:57;;;;;;;7.65;3.33;;;;;;;5.55;61.67;93618.16;6156899;23;20020;-77
2023/02/05 07:26:22;;;;;;;12.85;3.78;;;;;;;6.15;59.41;93630.09;6181187;23;20013;-77
2023/02/05 07:28:48;;;;;;;10.32;3.10;;;;;;;6.88;56.39;93636.34;6180553;23;20086;-78
2023/02/05 07:31:15;;;;;;;11.27;3.75;;;;;;;7.55;55.02;93632.19;6182549;23;20092;-77
2023/02/05 07:33:43;;;;;;;19.58;4.22;;;;;;;8.34;51.81;93634.50;6155972;23;20584;-78
2023/02/05 07:36:10;;;;;;;11.23;3.70;;;;;;;8.63;49.52;93636.91;6182531;23;20001;-79
2023/02/05 07:38:37;;;;;;;13.73;4.05;;;;;;;9.25;47.82;93636.41;6159405;23;20449;-77
2023/02/05 07:41:07;;;;;;;13.00;3.85;;;;;;;9.71;46.92;93634.16;6183562;23;20027;-78
2023/02/05 07:43:34;;;;;;;14.75;4.18;;;;;;;10.62;44.98;93635.63;6184759;23;20025;-77
2023/02/05 07:46:09;;;;;;;10.27;4.10;;;;;;;10.67;43.95;93639.31;6185115;23;20001;-77
2023/02/05 07:48:34;;;;;;;8.93;3.95;;;;;;;11.23;42.47;93644.63;6185098;23;20345;-78
2023/02/05 07:51:01;;;;;;;10.52;4.18;;;;;;;11.90;41.00;93644.63;6133893;23;20013;-78
2023/02/05 07:53:27;;;;;;;10.82;3.30;;;;;;;12.05;39.18;93647.22;6187400;23;20020;-78
2023/02/05 07:55:52;;;;;;;12.65;4.85;;;;;;;12.17;39.39;93645.09;6184617;23;20016;-77
2023/02/05 07:58:19;;;;;;;10.85;3.35;;;;;;;12.97;37.21;93651.31;6185991;23;20032;-78
2023/02/05 08:00:45;;;;;;;9.63;3.75;;;;;;;12.94;37.49;93644.75;6158035;23;20460;-77
2023/02/05 08:03:11;;;;;;;9.90;3.63;;;;;;;12.91;36.85;93659.22;6160931;23;20028;-78
2023/02/05 08:05:38;;;;;;;10.25;3.47;;;;;;;12.71;36.69;93654.84;6186980;23;20001;-77
2023/02/05 08:08:04;;;;;;;10.07;3.13;;;;;;;13.60;35.53;93648.81;6185131;23;20007;-78
2023/02/05 08:10:30;;;;;;;8.27;2.90;;;;;;;13.29;35.97;93643.78;6185649;23;20025;-78
2023/02/05 08:12:55;;;;;;;10.68;3.17;;;;;;;12.46;37.73;93660.22;6158235;23;20452;-78
2023/02/05 08:15:21;;;;;;;10.98;3.30;;;;;;;12.94;36.85;93654.47;6160095;23;20013;-78
2023/02/05 08:17:47;;;;;;;11.50;3.13;;;;;;;13.90;34.90;93645.09;6158585;23;20262;-77
2023/02/05 08:20:13;;;;;;;13.15;3.15;;;;;;;14.56;34.32;93646.25;6185103;23;20023;-78
2023/02/05 08:22:40;;;;;;;9.93;3.17;;;;;;;13.53;35.70;93643.03;6158857;23;20039;-78
2023/02/05 08:25:11;;;;;;;11.82;3.20;;;;;;;13.75;35.90;93642.59;6158929;23;20024;-78
2023/02/05 08:27:38;;;;;;;12.25;2.97;;;;;;;14.58;34.29;93633.59;6156336;23;20067;-77
2023/02/05 08:30:06;;;;;;;12.32;3.28;;;;;;;14.72;33.80;93633.66;6185595;23;20000;-78
2023/02/05 08:32:32;;;;;;;8.00;2.78;;;;;;;14.73;33.69;93622.06;6183852;23;20045;-78
2023/02/05 08:34:58;;;;;;;10.77;3.35;;;;;;;14.29;34.29;93633.63;6158759;23;20506;-77
2023/02/05 08:37:24;;;;;;;10.02;2.78;;;;;;;14.20;34.39;93624.78;6184334;23;20024;-78
2023/02/05 08:39:49;;;;;;;11.25;2.95;;;;;;;13.37;35.42;93623.19;6183677;23;21810;-78
2023/02/05 08:42:15;;;;;;;9.00;2.70;;;;;;;12.94;35.76;93638.72;6157226;23;20072;-77
2023/02/05 08:44:41;;;;;;;11.73;2.72;;;;;;;12.42;36.91;93625.06;6179591;23;20065;-76
2023/02/05 08:47:07;;;;;;;12.70;2.80;;;;;;;11.94;38.43;93640.44;6157302;23;20027;-77
2023/02/05 08:49:32;;;;;;;7.32;2.50;;;;;;;11.85;39.54;93640.16;6154567;23;20013;-78
2023/02/05 08:51:58;;;;;;;7.93;2.97;;;;;;;11.78;39.44;93639.66;6181870;23;20326;-77
2023/02/05 08:54:24;;;;;;;9.35;2.80;;;;;;;11.28;40.68;93643.84;6155288;23;20056;-78
2023/02/05 08:56:51;;;;;;;8.25;3.13;;;;;;;11.24;40.76;93643.59;6182376;23;20017;-77
2023/02/05 08:59:17;;;;;;;8.73;3.05;;;;;;;10.73;40.91;93633.03;6151382;23;20210;-77
2023/02/05 09:01:43;;;;;;;10.88;3.25;;;;;;;10.40;42.25;93627.19;6153931;23;20008;-77
2023/02/05 09:04:13;;;;;;;6.88;2.72;;;;;;;10.29;42.04;93639.47;6180324;23;20032;-77
2023/02/05 09:06:39;;;;;;;10.10;2.47;;;;;;;10.17;42.78;93642.22;6182588;23;20001;-77
2023/02/05 09:09:04;;;;;;;12.65;2.75;;;;;;;10.14;42.88;93627.06;6183824;23;20009;-78
2023/02/05 09:11:30;;;;;;;13.25;3.25;;;;;;;9.98;43.24;93622.81;6180405;23;20024;-76
2023/02/05 09:13:56;;;;;;;12.23;2.78;;;;;;;9.53;44.21;93621.50;6157469;23;20067;-78
2023/02/05 09:16:23;;;;;;;10.25;3.10;;;;;;;9.51;44.84;93621.72;6156831;23;20044;-77
2023/02/05 09:18:49;;;;;;;11.02;2.83;;;;;;;9.84;43.79;93624.28;6156205;23;20014;-77
2023/02/05 09:21:14;;;;;;;8.45;3.22;;;;;;;9.50;44.67;93630.63;6180887;23;20012;-76
2023/02/05 09:23:40;;;;;;;11.02;3.17;;;;;;;8.85;45.66;93632.44;6181756;23;20029;-77
2023/02/05 09:26:07;;;;;;;10.40;3.13;;;;;;;8.49;47.18;93639.13;6154668;23;20352;-77
2023/02/05 09:28:34;;;;;;;10.55;3.38;;;;;;;8.60;46.93;93642.63;6154515;23;20096;-77
2023/02/05 09:31:04;;;;;;;11.70;3.10;;;;;;;8.43;48.15;93640.88;6182410;23;20031;-77
2023/02/05 09:33:30;;;;;;;14.05;4.50;;;;;;;8.60;48.12;93637.41;6180060;23;20357;-77
2023/02/05 09:35:56;;;;;;;10.25;2.88;;;;;;;8.51;47.49;93635.25;6155286;23;20013;-77
2023/02/05 09:38:22;;;;;;;12.35;3.30;;;;;;;8.69;47.78;93644.56;6182542;23;20009;-77
2023/02/05 09:41:36;;;;;;;8.02;3.13;;;;;;;9.04;47.48;93639.91;6156544;23;20400;-77
2023/02/05 09:44:40;;;;;;;10.57;3.70;;;;;;;8.25;49.10;93643.78;6170814;23;20044;-77
2023/02/05 09:47:31;;;;;;;10.95;2.38;;;;;;;7.91;50.53;93649.09;6183142;23;20505;-77
2023/02/05 09:50:10;;;;;;;11.55;3.47;;;;;;;7.54;51.73;93659.25;6182964;23;20501;-76
2023/02/05 09:52:39;;;;;;;11.68;3.90;;;;;;;7.74;52.21;93658.75;6182834;23;20020;-77
2023/02/05 09:55:21;;;;;;;16.10;4.03;;;;;;;7.32;52.23;93649.56;6156013;23;20013;-77
2023/02/05 09:57:49;;;;;;;9.50;3.72;;;;;;;6.67;54.18;93651.59;6182336;23;20063;-77
2023/02/05 10:00:29;;;;;;;6.93;2.92;;;;;;;6.65;55.28;93643.22;6182887;23;20020;-76
2023/02/05 10:03:05;;;;;;;4.38;2.20;;;;;;;6.18;55.73;93647.81;6156919;23;20009;-78
2023/02/05 10:05:45;;;;;;;16.25;4.82;;;;;;;6.51;55.32;93651.53;6180593;23;20021;-77
2023/02/05 10:08:32;;;;;;;5.50;2.25;;;;;;;6.23;55.12;93645.31;6182838;23;20345;-77
2023/02/05 10:11:00;;;;;;;5.50;1.88;;;;;;;6.10;55.85;93640.38;6155769;23;20017;-77
2023/02/05 10:13:36;;;;;;;14.60;3.25;;;;;;;6.01;56.08;93632.94;6183146;23;20001;-77
2023/02/05 10:16:22;;;;;;;17.08;4.50;;;;;;;6.19;56.44;93638.97;6182495;23;20020;-76
2023/02/05 10:19:05;;;;;;;13.88;4.90;;;;;;;6.30;55.64;93637.38;6182518;23;20005;-77
2023/02/05 10:21:59;;;;;;;5.78;2.05;;;;;;;6.30;55.78;93630.34;6182328;23;20400;-77
2023/02/05 10:24:30;;;;;;;5.45;2.30;;;;;;;6.54;55.24;93636.28;6156003;23;20016;-76
2023/02/05 10:27:08;;;;;;;13.05;3.60;;;;;;;6.82;55.06;93632.06;6182907;23;20437;-77
2023/02/05 10:30:01;;;;;;;3.92;2.08;;;;;;;7.02;54.03;93631.63;6182561;23;20246;-77
2023/02/05 10:33:02;;;;;;;6.93;2.15;;;;;;;6.77;53.10;93635.38;6182816;23;20147;-77
2023/02/05 10:35:50;;;;;;;9.60;2.25;;;;;;;6.65;54.31;93647.66;6156925;23;20013;-77
2023/02/05 10:38:22;;;;;;;3.05;1.63;;;;;;;6.94;52.93;93632.03;6156217;23;20001;-77
2023/02/05 10:40:52;;;;;;;12.00;5.57;;;;;;;6.40;55.12;93633.16;6181426;23;20040;-77
2023/02/05 10:43:29;;;;;;;5.85;1.88;;;;;;;6.18;55.64;93625.19;6156466;23;20013;-77
2023/02/05 10:45:57;;;;;;;10.30;3.85;;;;;;;6.40;55.34;93621.97;6181911;23;20009;-77
2023/02/05 10:48:56;;;;;;;6.88;2.22;;;;;;;6.58;54.42;93615.78;6156009;23;20005;-77
2023/02/05 10:51:43;;;;;;;9.48;3.10;;;;;;;6.50;56.40;93605.75;6155126;23;20012;-77
2023/02/05 10:54:19;;;;;;;49.03;15.23;;;;;;;6.56;54.94;93612.63;6155950;23;20016;-77
2023/02/05 10:56:45;;;;;;;19.02;8.68;;;;;;;6.40;56.15;93614.16;6181571;23;20436;-77
2023/02/05 10:59:19;;;;;;;9.45;3.17;;;;;;;6.41;56.06;93605.34;6181991;23;20100;-77
2023/02/05 11:01:45;;;;;;;12.38;2.97;;;;;;;6.62;55.33;93609.06;6155197;23;20048;-77
2023/02/05 11:04:12;;;;;;;13.15;3.10;;;;;;;6.79;55.20;93601.31;6156667;23;20013;-77
2023/02/05 11:06:44;;;;;;;11.88;2.60;;;;;;;6.64;55.69;93596.63;6181914;23;20430;-76
2023/02/05 11:09:25;;;;;;;6.37;2.07;;;;;;;6.56;54.83;93592.59;6182594;23;20438;-77
2023/02/05 11:11:52;;;;;;;6.40;2.53;;;;;;;6.54;55.64;93584.25;6181504;23;20240;-76
2023/02/05 11:14:30;;;;;;;8.93;2.63;;;;;;;6.89;55.38;93585.88;6182609;23;20488;-77
2023/02/05 11:16:56;;;;;;;11.10;2.95;;;;;;;6.96;54.41;93570.06;6157212;23;20385;-77
2023/02/05 11:19:26;;;;;;;9.55;2.90;;;;;;;6.90;54.36;93581.44;6183593;23;20017;-77
2023/02/05 11:21:53;;;;;;;7.65;2.90;;;;;;;6.77;54.76;93559.91;6184202;23;20016;-77
2023/02/05 11:24:38;;;;;;;12.48;4.40;;;;;;;6.47;56.14;93571.38;6184713;23;20016;-77
2023/02/05 11:27:32;;;;;;;8.60;2.13;;;;;;;6.74;54.87;93580.41;6185204;23;20018;-77
2023/02/05 11:30:26;;;;;;;10.65;4.20;;;;;;;6.78;54.14;93569.31;6158012;23;20063;-77
2023/02/05 11:32:53;;;;;;;8.68;2.78;;;;;;;6.79;54.58;93573.47;6184691;23;20445;-76
2023/02/05 11:35:21;;;;;;;4.13;2.25;;;;;;;6.80;55.11;93567.25;6184312;23;20000;-77
2023/02/05 11:38:09;;;;;;;10.05;2.80;;;;;;;6.80;55.41;93561.22;6184089;23;20448;-77
2023/02/05 11:40:36;;;;;;;7.93;2.80;;;;;;;6.68;55.22;93564.69;6182321;23;20060;-76
2023/02/05 11:43:06;;;;;;;15.20;3.58;;;;;;;6.68;55.24;93558.72;6182228;23;20441;-76
2023/02/05 11:45:34;;;;;;;11.43;4.28;;;;;;;6.52;56.07;93560.28;6180250;23;20645;-76
2023/02/05 11:48:03;;;;;;;10.00;3.28;;;;;;;6.64;54.98;93562.81;6160049;23;20133;-79